Aviation Digital Data Service (ADDS)

Output produced by METARs form (1443 UTC 23 January 2019)
found at http://www.aviationweather.gov/metar/data/
 
METAR text: MRLB 231400Z 09015KT CAVOK 29/17 A2985 NOSIG
Conditions at: MRLB (LIBERIA/TOMAS G , CR) observed 1400 UTC 23 January 2019
Temperature: 29.0°C (84°F)
Dewpoint: 17.0°C (63°F) [RH = 48%]
Pressure (altimeter): 29.85 inches Hg (1010.9 mb)
Winds: from the E (90 degrees) at 17 MPH (15 knots; 7.7 m/s)
Visibility: 6 or more miles (10+ km)
Ceiling: ceiling and visibility are OK
Clouds: unknown
Weather: no significant weather observed at this time

METAR text: MRLB 231300Z 05006KT CAVOK 23/18 A2983 NOSIG
Conditions at: MRLB (LIBERIA/TOMAS G , CR) observed 1300 UTC 23 January 2019
Temperature: 23.0°C (73°F)
Dewpoint: 18.0°C (64°F) [RH = 73%]
Pressure (altimeter): 29.83 inches Hg (1010.2 mb)
Winds: from the NE (50 degrees) at 7 MPH (6 knots; 3.1 m/s)
Visibility: 6 or more miles (10+ km)
Ceiling: ceiling and visibility are OK
Clouds: unknown
Weather: no significant weather observed at this time

METAR text: MRLB 231200Z 36006KT CAVOK 22/18 A2981 NOSIG
Conditions at: MRLB (LIBERIA/TOMAS G , CR) observed 1200 UTC 23 January 2019
Temperature: 22.0°C (72°F)
Dewpoint: 18.0°C (64°F) [RH = 78%]
Pressure (altimeter): 29.81 inches Hg (1009.6 mb)
Winds: from the N (360 degrees) at 7 MPH (6 knots; 3.1 m/s)
Visibility: 6 or more miles (10+ km)
Ceiling: ceiling and visibility are OK
Clouds: unknown
Weather: no significant weather observed at this time

METAR text: MRLB 230600Z 09020G30KT CAVOK 26/17 A2980 NOSIG
Conditions at: MRLB (LIBERIA/TOMAS G , CR) observed 0600 UTC 23 January 2019
Temperature: 26.0°C (79°F)
Dewpoint: 17.0°C (63°F) [RH = 58%]
Pressure (altimeter): 29.80 inches Hg (1009.2 mb)
Winds: from the E (90 degrees) at 23 MPH (20 knots; 10.3 m/s)
gusting to 34 MPH (30 knots; 15.4 m/s)
Visibility: 6 or more miles (10+ km)
Ceiling: ceiling and visibility are OK
Clouds: unknown
Weather: no significant weather observed at this time

METAR text: MRLB 230500Z 09018G28KT CAVOK 26/18 A2981 NOSIG
Conditions at: MRLB (LIBERIA/TOMAS G , CR) observed 0500 UTC 23 January 2019
Temperature: 26.0°C (79°F)
Dewpoint: 18.0°C (64°F) [RH = 61%]
Pressure (altimeter): 29.81 inches Hg (1009.6 mb)
Winds: from the E (90 degrees) at 21 MPH (18 knots; 9.3 m/s)
gusting to 32 MPH (28 knots; 14.4 m/s)
Visibility: 6 or more miles (10+ km)
Ceiling: ceiling and visibility are OK
Clouds: unknown
Weather: no significant weather observed at this time

METAR text: MRLB 230400Z 08020G30KT CAVOK 27/18 A2983 NOSIG
Conditions at: MRLB (LIBERIA/TOMAS G , CR) observed 0400 UTC 23 January 2019
Temperature: 27.0°C (81°F)
Dewpoint: 18.0°C (64°F) [RH = 58%]
Pressure (altimeter): 29.83 inches Hg (1010.2 mb)
Winds: from the E (80 degrees) at 23 MPH (20 knots; 10.3 m/s)
gusting to 34 MPH (30 knots; 15.4 m/s)
Visibility: 6 or more miles (10+ km)
Ceiling: ceiling and visibility are OK
Clouds: unknown
Weather: no significant weather observed at this time

METAR text: MRLB 230300Z 09022G32KT CAVOK 27(19 A2982 NOSIG
Conditions at: MRLB (LIBERIA/TOMAS G , CR) observed 0300 UTC 23 January 2019
Temperature: missing
Dewpoint: missing
Pressure (altimeter): 29.82 inches Hg (1009.9 mb)
Winds: from the E (90 degrees) at 25 MPH (22 knots; 11.3 m/s)
gusting to 37 MPH (32 knots; 16.5 m/s)
Visibility: 6 or more miles (10+ km)
Ceiling: ceiling and visibility are OK
Clouds: unknown
Weather: no significant weather observed at this time

METAR text: MRLB 230200Z 09023G33KT CAVOK 27/18 A2980 NOSIG
Conditions at: MRLB (LIBERIA/TOMAS G , CR) observed 0200 UTC 23 January 2019
Temperature: 27.0°C (81°F)
Dewpoint: 18.0°C (64°F) [RH = 58%]
Pressure (altimeter): 29.80 inches Hg (1009.2 mb)
Winds: from the E (90 degrees) at 26 MPH (23 knots; 11.8 m/s)
gusting to 38 MPH (33 knots; 17.0 m/s)
Visibility: 6 or more miles (10+ km)
Ceiling: ceiling and visibility are OK
Clouds: unknown
Weather: no significant weather observed at this time

METAR text: MRLB 230100Z 09022G32KT CAVOK 27/19 A2978 NOSIG
Conditions at: MRLB (LIBERIA/TOMAS G , CR) observed 0100 UTC 23 January 2019
Temperature: 27.0°C (81°F)
Dewpoint: 19.0°C (66°F) [RH = 62%]
Pressure (altimeter): 29.78 inches Hg (1008.5 mb)
Winds: from the E (90 degrees) at 25 MPH (22 knots; 11.3 m/s)
gusting to 37 MPH (32 knots; 16.5 m/s)
Visibility: 6 or more miles (10+ km)
Ceiling: ceiling and visibility are OK
Clouds: unknown
Weather: no significant weather observed at this time

METAR text: MRLB 230000Z 08021G34KT CAVOK 27/18 A2979 NOSIG
Conditions at: MRLB (LIBERIA/TOMAS G , CR) observed 0000 UTC 23 January 2019
Temperature: 27.0°C (81°F)
Dewpoint: 18.0°C (64°F) [RH = 58%]
Pressure (altimeter): 29.79 inches Hg (1008.9 mb)
Winds: from the E (80 degrees) at 24 MPH (21 knots; 10.8 m/s)
gusting to 39 MPH (34 knots; 17.5 m/s)
Visibility: 6 or more miles (10+ km)
Ceiling: ceiling and visibility are OK
Clouds: unknown
Weather: no significant weather observed at this time

METAR text: MRLB 222300Z 08020G32KT CAVOK 29/18 A2977 NOSIG
Conditions at: MRLB (LIBERIA/TOMAS G , CR) observed 2300 UTC 22 January 2019
Temperature: 29.0°C (84°F)
Dewpoint: 18.0°C (64°F) [RH = 52%]
Pressure (altimeter): 29.77 inches Hg (1008.2 mb)
Winds: from the E (80 degrees) at 23 MPH (20 knots; 10.3 m/s)
gusting to 37 MPH (32 knots; 16.5 m/s)
Visibility: 6 or more miles (10+ km)
Ceiling: ceiling and visibility are OK
Clouds: unknown
Weather: no significant weather observed at this time

METAR text: MRLB 222200Z 08023G34KT CAVOK 31/17 A2975 NOSIG
Conditions at: MRLB (LIBERIA/TOMAS G , CR) observed 2200 UTC 22 January 2019
Temperature: 31.0°C (88°F)
Dewpoint: 17.0°C (63°F) [RH = 43%]
Pressure (altimeter): 29.75 inches Hg (1007.5 mb)
Winds: from the E (80 degrees) at 26 MPH (23 knots; 11.8 m/s)
gusting to 39 MPH (34 knots; 17.5 m/s)
Visibility: 6 or more miles (10+ km)
Ceiling: ceiling and visibility are OK
Clouds: unknown
Weather: no significant weather observed at this time

METAR text: MRLB 222100Z 08025G35KT CAVOK 32/18 A2976 NOSIG
Conditions at: MRLB (LIBERIA/TOMAS G , CR) observed 2100 UTC 22 January 2019
Temperature: 32.0°C (90°F)
Dewpoint: 18.0°C (64°F) [RH = 43%]
Pressure (altimeter): 29.76 inches Hg (1007.9 mb)
Winds: from the E (80 degrees) at 29 MPH (25 knots; 12.9 m/s)
gusting to 40 MPH (35 knots; 18.0 m/s)
Visibility: 6 or more miles (10+ km)
Ceiling: ceiling and visibility are OK
Clouds: unknown
Weather: no significant weather observed at this time

METAR text: MRLB 222000Z 08025G37KT CAVOK 33/18 A2977 NOSIG
Conditions at: MRLB (LIBERIA/TOMAS G , CR) observed 2000 UTC 22 January 2019
Temperature: 33.0°C (91°F)
Dewpoint: 18.0°C (64°F) [RH = 41%]
Pressure (altimeter): 29.77 inches Hg (1008.2 mb)
Winds: from the E (80 degrees) at 29 MPH (25 knots; 12.9 m/s)
gusting to 43 MPH (37 knots; 19.0 m/s)
Visibility: 6 or more miles (10+ km)
Ceiling: ceiling and visibility are OK
Clouds: unknown
Weather: no significant weather observed at this time

METAR text: MRLB 221900Z 08025G35KT CAVOK 33/17 A2980 NOSIG
Conditions at: MRLB (LIBERIA/TOMAS G , CR) observed 1900 UTC 22 January 2019
Temperature: 33.0°C (91°F)
Dewpoint: 17.0°C (63°F) [RH = 39%]
Pressure (altimeter): 29.80 inches Hg (1009.2 mb)
Winds: from the E (80 degrees) at 29 MPH (25 knots; 12.9 m/s)
gusting to 40 MPH (35 knots; 18.0 m/s)
Visibility: 6 or more miles (10+ km)
Ceiling: ceiling and visibility are OK
Clouds: unknown
Weather: no significant weather observed at this time

METAR text: MRLB 221800Z 07025KT CAVOK 33/17 A2984 NOSIG
Conditions at: MRLB (LIBERIA/TOMAS G , CR) observed 1800 UTC 22 January 2019
Temperature: 33.0°C (91°F)
Dewpoint: 17.0°C (63°F) [RH = 39%]
Pressure (altimeter): 29.84 inches Hg (1010.6 mb)
Winds: from the ENE (70 degrees) at 29 MPH (25 knots; 12.9 m/s)
Visibility: 6 or more miles (10+ km)
Ceiling: ceiling and visibility are OK
Clouds: unknown
Weather: no significant weather observed at this time

METAR text: MRLB 221700Z 08025KT CAVOK 32/17 A2986 NOSIG
Conditions at: MRLB (LIBERIA/TOMAS G , CR) observed 1700 UTC 22 January 2019
Temperature: 32.0°C (90°F)
Dewpoint: 17.0°C (63°F) [RH = 41%]
Pressure (altimeter): 29.86 inches Hg (1011.3 mb)
Winds: from the E (80 degrees) at 29 MPH (25 knots; 12.9 m/s)
Visibility: 6 or more miles (10+ km)
Ceiling: ceiling and visibility are OK
Clouds: unknown
Weather: no significant weather observed at this time

METAR text: MRLB 221600Z 08025G35KT CAVOK 31/17 A2986 NOSIG
Conditions at: MRLB (LIBERIA/TOMAS G , CR) observed 1600 UTC 22 January 2019
Temperature: 31.0°C (88°F)
Dewpoint: 17.0°C (63°F) [RH = 43%]
Pressure (altimeter): 29.86 inches Hg (1011.3 mb)
Winds: from the E (80 degrees) at 29 MPH (25 knots; 12.9 m/s)
gusting to 40 MPH (35 knots; 18.0 m/s)
Visibility: 6 or more miles (10+ km)
Ceiling: ceiling and visibility are OK
Clouds: unknown
Weather: no significant weather observed at this time

METAR text: MRLB 221500Z 08026G40KT CAVOK 30/17 A2985 NOSIG
Conditions at: MRLB (LIBERIA/TOMAS G , CR) observed 1500 UTC 22 January 2019
Temperature: 30.0°C (86°F)
Dewpoint: 17.0°C (63°F) [RH = 46%]
Pressure (altimeter): 29.85 inches Hg (1010.9 mb)
Winds: from the E (80 degrees) at 30 MPH (26 knots; 13.4 m/s)
gusting to 46 MPH (40 knots; 20.6 m/s)
Visibility: 6 or more miles (10+ km)
Ceiling: ceiling and visibility are OK
Clouds: unknown
Weather: no significant weather observed at this time

METAR text: MRLB 221400Z 09020G30KT CAVOK 29/16 A2985 NOSIG
Conditions at: MRLB (LIBERIA/TOMAS G , CR) observed 1400 UTC 22 January 2019
Temperature: 29.0°C (84°F)
Dewpoint: 16.0°C (61°F) [RH = 45%]
Pressure (altimeter): 29.85 inches Hg (1010.9 mb)
Winds: from the E (90 degrees) at 23 MPH (20 knots; 10.3 m/s)
gusting to 34 MPH (30 knots; 15.4 m/s)
Visibility: 6 or more miles (10+ km)
Ceiling: ceiling and visibility are OK
Clouds: unknown
Weather: no significant weather observed at this time

METAR text: MRLB 221300Z 09019KT CAVOK 27/16 A2981 NOSIG
Conditions at: MRLB (LIBERIA/TOMAS G , CR) observed 1300 UTC 22 January 2019
Temperature: 27.0°C (81°F)
Dewpoint: 16.0°C (61°F) [RH = 51%]
Pressure (altimeter): 29.81 inches Hg (1009.6 mb)
Winds: from the E (90 degrees) at 22 MPH (19 knots; 9.8 m/s)
Visibility: 6 or more miles (10+ km)
Ceiling: ceiling and visibility are OK
Clouds: unknown
Weather: no significant weather observed at this time

METAR text: MRLB 221200Z 08024G34KT CAVOK 27/16 A2979 NOSIG
Conditions at: MRLB (LIBERIA/TOMAS G , CR) observed 1200 UTC 22 January 2019
Temperature: 27.0°C (81°F)
Dewpoint: 16.0°C (61°F) [RH = 51%]
Pressure (altimeter): 29.79 inches Hg (1008.9 mb)
Winds: from the E (80 degrees) at 28 MPH (24 knots; 12.3 m/s)
gusting to 39 MPH (34 knots; 17.5 m/s)
Visibility: 6 or more miles (10+ km)
Ceiling: ceiling and visibility are OK
Clouds: unknown
Weather: no significant weather observed at this time

METAR text: MRLB 220500Z 09020KT CAVOK 26/16 A2986 NOSIG
Conditions at: MRLB (LIBERIA/TOMAS G , CR) observed 0500 UTC 22 January 2019
Temperature: 26.0°C (79°F)
Dewpoint: 16.0°C (61°F) [RH = 54%]
Pressure (altimeter): 29.86 inches Hg (1011.3 mb)
Winds: from the E (90 degrees) at 23 MPH (20 knots; 10.3 m/s)
Visibility: 6 or more miles (10+ km)
Ceiling: ceiling and visibility are OK
Clouds: unknown
Weather: no significant weather observed at this time

METAR text: MRLB 220600Z 09018KT CAVOK 25/17 A2985 NOSIG
Conditions at: MRLB (LIBERIA/TOMAS G , CR) observed 0411 UTC 22 January 2019
Temperature: 25.0°C (77°F)
Dewpoint: 17.0°C (63°F) [RH = 61%]
Pressure (altimeter): 29.85 inches Hg (1010.9 mb)
Winds: from the E (90 degrees) at 21 MPH (18 knots; 9.3 m/s)
Visibility: 6 or more miles (10+ km)
Ceiling: ceiling and visibility are OK
Clouds: unknown
Weather: no significant weather observed at this time

METAR text: MRLB 220400Z 09020KT CAVOK 27/17 A2988 NOSIG
Conditions at: MRLB (LIBERIA/TOMAS G , CR) observed 0400 UTC 22 January 2019
Temperature: 27.0°C (81°F)
Dewpoint: 17.0°C (63°F) [RH = 54%]
Pressure (altimeter): 29.88 inches Hg (1011.9 mb)
Winds: from the E (90 degrees) at 23 MPH (20 knots; 10.3 m/s)
Visibility: 6 or more miles (10+ km)
Ceiling: ceiling and visibility are OK
Clouds: unknown
Weather: no significant weather observed at this time

METAR text: MRLB 220300Z 08018G30KT CAVOK 27/18 A2988 NOSIG
Conditions at: MRLB (LIBERIA/TOMAS G , CR) observed 0300 UTC 22 January 2019
Temperature: 27.0°C (81°F)
Dewpoint: 18.0°C (64°F) [RH = 58%]
Pressure (altimeter): 29.88 inches Hg (1011.9 mb)
Winds: from the E (80 degrees) at 21 MPH (18 knots; 9.3 m/s)
gusting to 34 MPH (30 knots; 15.4 m/s)
Visibility: 6 or more miles (10+ km)
Ceiling: ceiling and visibility are OK
Clouds: unknown
Weather: no significant weather observed at this time

Forecast for: MRLB (LIBERIA/TOMAS G , CR)
Text: MRLB 231100Z 2312/2412 09020G32KT CAVOK TX34/2319Z TN21/2409Z
Forecast period: 1200 UTC 23 January 2019 to 1200 UTC 24 January 2019
Forecast type: FROM: standard forecast or significant change
Winds: from the E (90 degrees) at 23 MPH (20 knots; 10.3 m/s)
gusting to 37 MPH (32 knots; 16.5 m/s)
Visibility: 6 or more miles 10+ km)
Ceiling: unknown
Clouds: missing
Weather: no significant weather forecast for this period